sensor_id;sensor_type;location;lat;lon;timestamp;P1;durP1;ratioP1;P2;durP2;ratioP2
30998;SDS011;20549;50.042;8.968;2022-12-18T00:01:01;28.87;;;15.27;;
30998;SDS011;20549;50.042;8.968;2022-12-18T00:03:27;26.83;;;14.67;;
30998;SDS011;20549;50.042;8.968;2022-12-18T00:05:54;27.73;;;15.67;;
30998;SDS011;20549;50.042;8.968;2022-12-18T00:08:20;24.70;;;14.73;;
30998;SDS011;20549;50.042;8.968;2022-12-18T00:10:47;27.20;;;15.80;;
30998;SDS011;20549;50.042;8.968;2022-12-18T00:13:13;31.50;;;15.17;;
30998;SDS011;20549;50.042;8.968;2022-12-18T00:15:40;30.90;;;14.37;;
30998;SDS011;20549;50.042;8.968;2022-12-18T00:18:07;30.77;;;14.83;;
30998;SDS011;20549;50.042;8.968;2022-12-18T00:20:37;25.97;;;13.70;;
30998;SDS011;20549;50.042;8.968;2022-12-18T00:23:03;26.00;;;14.37;;
30998;SDS011;20549;50.042;8.968;2022-12-18T00:25:29;29.73;;;15.47;;
30998;SDS011;20549;50.042;8.968;2022-12-18T00:27:56;30.20;;;14.67;;
30998;SDS011;20549;50.042;8.968;2022-12-18T00:30:22;28.83;;;15.33;;
30998;SDS011;20549;50.042;8.968;2022-12-18T00:32:49;32.70;;;15.57;;
30998;SDS011;20549;50.042;8.968;2022-12-18T00:35:16;30.87;;;16.47;;
30998;SDS011;20549;50.042;8.968;2022-12-18T00:37:42;33.07;;;16.23;;
30998;SDS011;20549;50.042;8.968;2022-12-18T00:40:09;32.20;;;16.00;;
30998;SDS011;20549;50.042;8.968;2022-12-18T00:42:36;30.77;;;16.43;;
30998;SDS011;20549;50.042;8.968;2022-12-18T00:45:21;29.60;;;15.87;;
30998;SDS011;20549;50.042;8.968;2022-12-18T00:47:47;35.90;;;18.53;;
30998;SDS011;20549;50.042;8.968;2022-12-18T00:50:14;29.33;;;16.60;;
30998;SDS011;20549;50.042;8.968;2022-12-18T00:52:40;33.00;;;17.30;;
30998;SDS011;20549;50.042;8.968;2022-12-18T00:55:07;31.77;;;16.23;;
30998;SDS011;20549;50.042;8.968;2022-12-18T00:57:33;31.27;;;16.93;;
30998;SDS011;20549;50.042;8.968;2022-12-18T01:00:00;35.83;;;19.73;;
30998;SDS011;20549;50.042;8.968;2022-12-18T01:02:27;36.57;;;17.97;;
30998;SDS011;20549;50.042;8.968;2022-12-18T01:04:53;32.17;;;16.40;;
30998;SDS011;20549;50.042;8.968;2022-12-18T01:07:20;33.20;;;17.70;;
30998;SDS011;20549;50.042;8.968;2022-12-18T01:09:46;29.00;;;17.67;;
30998;SDS011;20549;50.042;8.968;2022-12-18T01:12:13;32.10;;;16.97;;
30998;SDS011;20549;50.042;8.968;2022-12-18T01:14:40;31.83;;;16.70;;
30998;SDS011;20549;50.042;8.968;2022-12-18T01:17:06;27.40;;;15.73;;
30998;SDS011;20549;50.042;8.968;2022-12-18T01:19:33;27.73;;;15.43;;
30998;SDS011;20549;50.042;8.968;2022-12-18T01:21:59;27.10;;;15.40;;
30998;SDS011;20549;50.042;8.968;2022-12-18T01:24:26;37.20;;;17.33;;
30998;SDS011;20549;50.042;8.968;2022-12-18T01:26:53;31.23;;;17.13;;
30998;SDS011;20549;50.042;8.968;2022-12-18T01:29:19;30.57;;;16.27;;
30998;SDS011;20549;50.042;8.968;2022-12-18T01:31:46;31.77;;;17.40;;
30998;SDS011;20549;50.042;8.968;2022-12-18T01:34:12;30.57;;;16.20;;
30998;SDS011;20549;50.042;8.968;2022-12-18T01:36:39;27.63;;;15.17;;
30998;SDS011;20549;50.042;8.968;2022-12-18T01:39:07;33.07;;;16.47;;
30998;SDS011;20549;50.042;8.968;2022-12-18T01:41:32;29.33;;;16.57;;
30998;SDS011;20549;50.042;8.968;2022-12-18T01:47:19;33.17;;;16.97;;
30998;SDS011;20549;50.042;8.968;2022-12-18T01:49:47;33.07;;;17.40;;
30998;SDS011;20549;50.042;8.968;2022-12-18T01:52:13;32.23;;;18.27;;
30998;SDS011;20549;50.042;8.968;2022-12-18T01:54:40;30.37;;;16.53;;
30998;SDS011;20549;50.042;8.968;2022-12-18T01:57:06;33.10;;;17.77;;
30998;SDS011;20549;50.042;8.968;2022-12-18T01:59:33;35.70;;;16.77;;
30998;SDS011;20549;50.042;8.968;2022-12-18T02:02:00;28.07;;;15.57;;
30998;SDS011;20549;50.042;8.968;2022-12-18T02:04:26;29.87;;;17.13;;
30998;SDS011;20549;50.042;8.968;2022-12-18T02:06:59;28.90;;;16.10;;
30998;SDS011;20549;50.042;8.968;2022-12-18T02:09:28;24.93;;;14.37;;
30998;SDS011;20549;50.042;8.968;2022-12-18T02:15:25;28.17;;;15.97;;
30998;SDS011;20549;50.042;8.968;2022-12-18T02:17:22;28.53;;;15.80;;
30998;SDS011;20549;50.042;8.968;2022-12-18T02:20:02;32.30;;;17.27;;
30998;SDS011;20549;50.042;8.968;2022-12-18T02:22:48;29.03;;;16.33;;
30998;SDS011;20549;50.042;8.968;2022-12-18T02:27:46;37.37;;;18.40;;
30998;SDS011;20549;50.042;8.968;2022-12-18T02:30:13;36.43;;;18.07;;
30998;SDS011;20549;50.042;8.968;2022-12-18T02:32:40;34.63;;;17.50;;
30998;SDS011;20549;50.042;8.968;2022-12-18T02:35:07;37.50;;;18.07;;
30998;SDS011;20549;50.042;8.968;2022-12-18T02:37:33;34.03;;;17.93;;
30998;SDS011;20549;50.042;8.968;2022-12-18T02:39:59;32.87;;;18.57;;
30998;SDS011;20549;50.042;8.968;2022-12-18T02:42:26;34.77;;;17.77;;
30998;SDS011;20549;50.042;8.968;2022-12-18T02:44:55;37.70;;;19.27;;
30998;SDS011;20549;50.042;8.968;2022-12-18T02:47:23;33.13;;;17.00;;
30998;SDS011;20549;50.042;8.968;2022-12-18T02:58:04;35.20;;;19.30;;
30998;SDS011;20549;50.042;8.968;2022-12-18T03:00:39;35.20;;;18.20;;
30998;SDS011;20549;50.042;8.968;2022-12-18T03:03:06;37.70;;;20.50;;
30998;SDS011;20549;50.042;8.968;2022-12-18T03:05:38;37.33;;;19.20;;
30998;SDS011;20549;50.042;8.968;2022-12-18T03:08:07;39.87;;;19.83;;
30998;SDS011;20549;50.042;8.968;2022-12-18T03:10:40;38.73;;;19.40;;
30998;SDS011;20549;50.042;8.968;2022-12-18T03:13:06;40.23;;;19.57;;
30998;SDS011;20549;50.042;8.968;2022-12-18T03:15:36;37.40;;;19.03;;
30998;SDS011;20549;50.042;8.968;2022-12-18T03:18:03;34.13;;;18.73;;
30998;SDS011;20549;50.042;8.968;2022-12-18T03:20:29;36.60;;;18.57;;
30998;SDS011;20549;50.042;8.968;2022-12-18T03:22:57;34.60;;;19.03;;
30998;SDS011;20549;50.042;8.968;2022-12-18T03:25:21;31.83;;;18.20;;
30998;SDS011;20549;50.042;8.968;2022-12-18T03:27:49;36.00;;;19.77;;
30998;SDS011;20549;50.042;8.968;2022-12-18T03:30:15;39.60;;;18.23;;
30998;SDS011;20549;50.042;8.968;2022-12-18T03:32:46;34.50;;;18.33;;
30998;SDS011;20549;50.042;8.968;2022-12-18T03:35:11;37.47;;;20.10;;
30998;SDS011;20549;50.042;8.968;2022-12-18T03:37:37;36.60;;;18.87;;
30998;SDS011;20549;50.042;8.968;2022-12-18T03:40:04;39.97;;;19.50;;
30998;SDS011;20549;50.042;8.968;2022-12-18T03:42:33;37.27;;;18.03;;
30998;SDS011;20549;50.042;8.968;2022-12-18T03:45:19;37.17;;;17.77;;
30998;SDS011;20549;50.042;8.968;2022-12-18T03:47:53;35.87;;;19.17;;
30998;SDS011;20549;50.042;8.968;2022-12-18T03:50:32;32.63;;;18.03;;
30998;SDS011;20549;50.042;8.968;2022-12-18T03:52:57;37.70;;;18.67;;
30998;SDS011;20549;50.042;8.968;2022-12-18T03:55:25;32.27;;;18.17;;
30998;SDS011;20549;50.042;8.968;2022-12-18T03:57:52;35.87;;;19.27;;
30998;SDS011;20549;50.042;8.968;2022-12-18T04:00:18;36.63;;;17.23;;
30998;SDS011;20549;50.042;8.968;2022-12-18T04:02:48;32.90;;;17.93;;
30998;SDS011;20549;50.042;8.968;2022-12-18T04:05:14;41.57;;;19.43;;
30998;SDS011;20549;50.042;8.968;2022-12-18T04:07:41;37.87;;;18.87;;
30998;SDS011;20549;50.042;8.968;2022-12-18T04:10:07;35.97;;;17.87;;
30998;SDS011;20549;50.042;8.968;2022-12-18T04:12:34;36.20;;;18.27;;
30998;SDS011;20549;50.042;8.968;2022-12-18T04:15:00;36.80;;;17.83;;
30998;SDS011;20549;50.042;8.968;2022-12-18T04:17:27;31.20;;;17.97;;
30998;SDS011;20549;50.042;8.968;2022-12-18T04:19:54;37.83;;;19.30;;
30998;SDS011;20549;50.042;8.968;2022-12-18T04:22:20;33.73;;;17.70;;
30998;SDS011;20549;50.042;8.968;2022-12-18T04:24:47;41.00;;;19.03;;
30998;SDS011;20549;50.042;8.968;2022-12-18T04:27:13;37.67;;;17.87;;
30998;SDS011;20549;50.042;8.968;2022-12-18T04:29:40;33.30;;;17.50;;
30998;SDS011;20549;50.042;8.968;2022-12-18T04:32:07;38.67;;;17.77;;
30998;SDS011;20549;50.042;8.968;2022-12-18T04:34:33;34.90;;;17.20;;
30998;SDS011;20549;50.042;8.968;2022-12-18T04:37:00;35.17;;;17.97;;
30998;SDS011;20549;50.042;8.968;2022-12-18T04:39:26;33.77;;;16.67;;
30998;SDS011;20549;50.042;8.968;2022-12-18T04:41:53;35.80;;;17.90;;
30998;SDS011;20549;50.042;8.968;2022-12-18T04:44:19;29.70;;;17.13;;
30998;SDS011;20549;50.042;8.968;2022-12-18T04:46:46;37.33;;;17.40;;
30998;SDS011;20549;50.042;8.968;2022-12-18T04:49:13;33.67;;;16.77;;
30998;SDS011;20549;50.042;8.968;2022-12-18T04:51:39;31.73;;;17.70;;
30998;SDS011;20549;50.042;8.968;2022-12-18T04:54:06;36.10;;;16.73;;
30998;SDS011;20549;50.042;8.968;2022-12-18T04:56:32;36.17;;;17.67;;
30998;SDS011;20549;50.042;8.968;2022-12-18T04:58:59;31.47;;;17.27;;
30998;SDS011;20549;50.042;8.968;2022-12-18T05:01:26;34.37;;;17.70;;
30998;SDS011;20549;50.042;8.968;2022-12-18T05:03:52;31.60;;;16.80;;
30998;SDS011;20549;50.042;8.968;2022-12-18T05:06:19;27.60;;;16.00;;
30998;SDS011;20549;50.042;8.968;2022-12-18T05:08:45;32.30;;;15.70;;
30998;SDS011;20549;50.042;8.968;2022-12-18T05:11:13;26.63;;;15.60;;
30998;SDS011;20549;50.042;8.968;2022-12-18T05:13:39;26.43;;;15.40;;
30998;SDS011;20549;50.042;8.968;2022-12-18T05:16:05;27.80;;;14.67;;
30998;SDS011;20549;50.042;8.968;2022-12-18T05:18:32;28.83;;;16.77;;
30998;SDS011;20549;50.042;8.968;2022-12-18T05:20:58;27.97;;;16.20;;
30998;SDS011;20549;50.042;8.968;2022-12-18T05:23:25;31.67;;;16.37;;
30998;SDS011;20549;50.042;8.968;2022-12-18T05:26:02;29.60;;;15.93;;
30998;SDS011;20549;50.042;8.968;2022-12-18T05:28:18;31.33;;;15.90;;
30998;SDS011;20549;50.042;8.968;2022-12-18T05:30:51;34.67;;;18.10;;
30998;SDS011;20549;50.042;8.968;2022-12-18T05:33:18;33.93;;;17.67;;
30998;SDS011;20549;50.042;8.968;2022-12-18T05:35:44;31.23;;;16.73;;
30998;SDS011;20549;50.042;8.968;2022-12-18T05:38:10;36.07;;;19.20;;
30998;SDS011;20549;50.042;8.968;2022-12-18T05:40:37;31.43;;;17.40;;
30998;SDS011;20549;50.042;8.968;2022-12-18T05:43:03;32.03;;;16.50;;
30998;SDS011;20549;50.042;8.968;2022-12-18T05:45:31;31.80;;;16.43;;
30998;SDS011;20549;50.042;8.968;2022-12-18T05:47:58;30.70;;;17.43;;
30998;SDS011;20549;50.042;8.968;2022-12-18T05:50:24;26.30;;;15.17;;
30998;SDS011;20549;50.042;8.968;2022-12-18T05:52:51;24.40;;;14.43;;
30998;SDS011;20549;50.042;8.968;2022-12-18T05:55:17;31.70;;;17.03;;
30998;SDS011;20549;50.042;8.968;2022-12-18T05:57:44;32.30;;;16.20;;
30998;SDS011;20549;50.042;8.968;2022-12-18T06:00:11;28.40;;;15.73;;
30998;SDS011;20549;50.042;8.968;2022-12-18T06:02:37;33.70;;;16.37;;
30998;SDS011;20549;50.042;8.968;2022-12-18T06:05:04;29.23;;;15.43;;
30998;SDS011;20549;50.042;8.968;2022-12-18T06:07:30;25.03;;;15.03;;
30998;SDS011;20549;50.042;8.968;2022-12-18T06:09:57;30.17;;;17.53;;
30998;SDS011;20549;50.042;8.968;2022-12-18T06:12:24;31.67;;;16.83;;
30998;SDS011;20549;50.042;8.968;2022-12-18T06:14:50;28.03;;;16.30;;
30998;SDS011;20549;50.042;8.968;2022-12-18T06:17:17;26.87;;;15.73;;
30998;SDS011;20549;50.042;8.968;2022-12-18T06:19:43;29.87;;;16.20;;
30998;SDS011;20549;50.042;8.968;2022-12-18T06:22:10;28.13;;;15.60;;
30998;SDS011;20549;50.042;8.968;2022-12-18T06:24:37;24.00;;;15.43;;
30998;SDS011;20549;50.042;8.968;2022-12-18T06:27:03;29.37;;;16.37;;
30998;SDS011;20549;50.042;8.968;2022-12-18T06:29:30;29.47;;;17.20;;
30998;SDS011;20549;50.042;8.968;2022-12-18T06:31:56;29.17;;;16.33;;
30998;SDS011;20549;50.042;8.968;2022-12-18T06:34:23;29.40;;;15.70;;
30998;SDS011;20549;50.042;8.968;2022-12-18T06:36:50;26.60;;;15.33;;
30998;SDS011;20549;50.042;8.968;2022-12-18T06:39:16;31.67;;;16.13;;
30998;SDS011;20549;50.042;8.968;2022-12-18T06:41:43;28.63;;;17.17;;
30998;SDS011;20549;50.042;8.968;2022-12-18T06:44:09;29.00;;;15.00;;
30998;SDS011;20549;50.042;8.968;2022-12-18T06:46:36;31.37;;;16.30;;
30998;SDS011;20549;50.042;8.968;2022-12-18T06:49:03;29.07;;;15.00;;
30998;SDS011;20549;50.042;8.968;2022-12-18T06:51:29;28.13;;;15.63;;
30998;SDS011;20549;50.042;8.968;2022-12-18T06:53:56;25.83;;;15.13;;
30998;SDS011;20549;50.042;8.968;2022-12-18T06:56:22;32.13;;;17.20;;
30998;SDS011;20549;50.042;8.968;2022-12-18T06:58:50;32.13;;;19.67;;
30998;SDS011;20549;50.042;8.968;2022-12-18T07:01:16;32.93;;;20.47;;
30998;SDS011;20549;50.042;8.968;2022-12-18T07:03:43;33.20;;;19.70;;
30998;SDS011;20549;50.042;8.968;2022-12-18T07:06:13;24.67;;;14.60;;
30998;SDS011;20549;50.042;8.968;2022-12-18T07:08:39;28.40;;;14.87;;
30998;SDS011;20549;50.042;8.968;2022-12-18T07:11:06;24.40;;;14.23;;
30998;SDS011;20549;50.042;8.968;2022-12-18T07:13:32;23.73;;;14.07;;
30998;SDS011;20549;50.042;8.968;2022-12-18T07:16:06;29.57;;;15.53;;
30998;SDS011;20549;50.042;8.968;2022-12-18T07:18:32;30.73;;;15.33;;
30998;SDS011;20549;50.042;8.968;2022-12-18T07:21:01;28.10;;;14.37;;
30998;SDS011;20549;50.042;8.968;2022-12-18T07:23:25;30.47;;;14.93;;
30998;SDS011;20549;50.042;8.968;2022-12-18T07:25:51;26.27;;;13.77;;
30998;SDS011;20549;50.042;8.968;2022-12-18T07:28:18;27.70;;;16.10;;
30998;SDS011;20549;50.042;8.968;2022-12-18T07:30:45;30.40;;;14.83;;
30998;SDS011;20549;50.042;8.968;2022-12-18T07:33:11;31.50;;;16.83;;
30998;SDS011;20549;50.042;8.968;2022-12-18T07:35:38;28.20;;;15.30;;
30998;SDS011;20549;50.042;8.968;2022-12-18T07:38:04;31.03;;;14.77;;
30998;SDS011;20549;50.042;8.968;2022-12-18T07:40:31;26.30;;;14.67;;
30998;SDS011;20549;50.042;8.968;2022-12-18T07:42:58;26.67;;;15.67;;
30998;SDS011;20549;50.042;8.968;2022-12-18T07:45:24;36.40;;;20.73;;
30998;SDS011;20549;50.042;8.968;2022-12-18T07:47:51;25.60;;;15.27;;
30998;SDS011;20549;50.042;8.968;2022-12-18T07:50:17;26.30;;;15.20;;
30998;SDS011;20549;50.042;8.968;2022-12-18T07:52:44;31.30;;;16.10;;
30998;SDS011;20549;50.042;8.968;2022-12-18T07:55:11;27.77;;;14.70;;
30998;SDS011;20549;50.042;8.968;2022-12-18T07:57:37;32.60;;;17.40;;
30998;SDS011;20549;50.042;8.968;2022-12-18T08:00:04;32.27;;;18.23;;
30998;SDS011;20549;50.042;8.968;2022-12-18T08:02:31;25.60;;;15.80;;
30998;SDS011;20549;50.042;8.968;2022-12-18T08:04:57;29.77;;;16.30;;
30998;SDS011;20549;50.042;8.968;2022-12-18T08:07:23;27.97;;;16.30;;
30998;SDS011;20549;50.042;8.968;2022-12-18T08:09:50;28.60;;;16.13;;
30998;SDS011;20549;50.042;8.968;2022-12-18T08:12:17;25.80;;;15.60;;
30998;SDS011;20549;50.042;8.968;2022-12-18T08:14:43;25.73;;;14.37;;
30998;SDS011;20549;50.042;8.968;2022-12-18T08:17:10;26.57;;;15.43;;
30998;SDS011;20549;50.042;8.968;2022-12-18T08:19:36;26.47;;;15.53;;
30998;SDS011;20549;50.042;8.968;2022-12-18T08:22:03;25.63;;;14.80;;
30998;SDS011;20549;50.042;8.968;2022-12-18T08:24:30;29.20;;;14.93;;
30998;SDS011;20549;50.042;8.968;2022-12-18T08:26:56;28.83;;;15.93;;
30998;SDS011;20549;50.042;8.968;2022-12-18T08:29:23;33.07;;;19.93;;
30998;SDS011;20549;50.042;8.968;2022-12-18T08:31:49;30.20;;;16.80;;
30998;SDS011;20549;50.042;8.968;2022-12-18T08:34:16;35.30;;;18.47;;
30998;SDS011;20549;50.042;8.968;2022-12-18T08:36:43;32.27;;;17.67;;
30998;SDS011;20549;50.042;8.968;2022-12-18T08:39:09;24.30;;;14.83;;
30998;SDS011;20549;50.042;8.968;2022-12-18T08:41:36;30.83;;;17.60;;
30998;SDS011;20549;50.042;8.968;2022-12-18T08:44:02;27.87;;;16.70;;
30998;SDS011;20549;50.042;8.968;2022-12-18T08:46:47;25.97;;;15.13;;
30998;SDS011;20549;50.042;8.968;2022-12-18T08:49:14;30.60;;;16.70;;
30998;SDS011;20549;50.042;8.968;2022-12-18T08:51:40;26.80;;;17.13;;
30998;SDS011;20549;50.042;8.968;2022-12-18T08:54:07;25.20;;;15.80;;
30998;SDS011;20549;50.042;8.968;2022-12-18T08:56:34;26.60;;;15.80;;
30998;SDS011;20549;50.042;8.968;2022-12-18T08:59:00;23.87;;;14.60;;
30998;SDS011;20549;50.042;8.968;2022-12-18T09:01:27;26.33;;;14.67;;
30998;SDS011;20549;50.042;8.968;2022-12-18T09:03:53;28.43;;;16.03;;
30998;SDS011;20549;50.042;8.968;2022-12-18T09:06:20;25.60;;;16.30;;
30998;SDS011;20549;50.042;8.968;2022-12-18T09:08:46;27.47;;;15.50;;
30998;SDS011;20549;50.042;8.968;2022-12-18T09:11:15;28.63;;;16.63;;
30998;SDS011;20549;50.042;8.968;2022-12-18T09:13:40;24.50;;;15.37;;
30998;SDS011;20549;50.042;8.968;2022-12-18T09:16:06;26.47;;;16.80;;
30998;SDS011;20549;50.042;8.968;2022-12-18T09:18:33;28.87;;;17.57;;
30998;SDS011;20549;50.042;8.968;2022-12-18T09:20:59;29.60;;;17.63;;
30998;SDS011;20549;50.042;8.968;2022-12-18T09:23:26;34.10;;;20.40;;
30998;SDS011;20549;50.042;8.968;2022-12-18T09:25:58;33.03;;;19.17;;
30998;SDS011;20549;50.042;8.968;2022-12-18T09:28:19;29.57;;;18.70;;
30998;SDS011;20549;50.042;8.968;2022-12-18T09:30:47;28.23;;;16.63;;
30998;SDS011;20549;50.042;8.968;2022-12-18T09:33:12;31.17;;;19.20;;
30998;SDS011;20549;50.042;8.968;2022-12-18T09:35:39;31.63;;;18.20;;
30998;SDS011;20549;50.042;8.968;2022-12-18T09:38:06;33.13;;;19.13;;
30998;SDS011;20549;50.042;8.968;2022-12-18T09:40:42;28.03;;;17.27;;
30998;SDS011;20549;50.042;8.968;2022-12-18T09:43:10;29.63;;;16.30;;
30998;SDS011;20549;50.042;8.968;2022-12-18T09:45:39;28.93;;;17.33;;
30998;SDS011;20549;50.042;8.968;2022-12-18T09:48:10;29.83;;;18.43;;
30998;SDS011;20549;50.042;8.968;2022-12-18T09:50:37;29.47;;;17.13;;
30998;SDS011;20549;50.042;8.968;2022-12-18T09:53:05;31.77;;;18.13;;
30998;SDS011;20549;50.042;8.968;2022-12-18T09:55:36;27.60;;;18.07;;
30998;SDS011;20549;50.042;8.968;2022-12-18T10:00:37;28.93;;;18.27;;
30998;SDS011;20549;50.042;8.968;2022-12-18T10:03:12;31.03;;;17.63;;
30998;SDS011;20549;50.042;8.968;2022-12-18T10:05:42;29.00;;;17.17;;
30998;SDS011;20549;50.042;8.968;2022-12-18T10:08:26;27.07;;;17.53;;
30998;SDS011;20549;50.042;8.968;2022-12-18T10:11:03;28.20;;;16.77;;
30998;SDS011;20549;50.042;8.968;2022-12-18T10:13:38;32.47;;;18.03;;
30998;SDS011;20549;50.042;8.968;2022-12-18T10:19:01;28.50;;;16.43;;
30998;SDS011;20549;50.042;8.968;2022-12-18T10:21:30;35.50;;;18.67;;
30998;SDS011;20549;50.042;8.968;2022-12-18T10:23:58;29.20;;;17.07;;
30998;SDS011;20549;50.042;8.968;2022-12-18T10:26:29;28.33;;;18.37;;
30998;SDS011;20549;50.042;8.968;2022-12-18T10:28:56;27.67;;;17.50;;
30998;SDS011;20549;50.042;8.968;2022-12-18T10:31:23;26.07;;;16.47;;
30998;SDS011;20549;50.042;8.968;2022-12-18T10:33:49;31.00;;;17.57;;
30998;SDS011;20549;50.042;8.968;2022-12-18T10:36:16;28.63;;;17.20;;
30998;SDS011;20549;50.042;8.968;2022-12-18T10:38:42;23.77;;;15.37;;
30998;SDS011;20549;50.042;8.968;2022-12-18T10:43:45;29.03;;;16.63;;
30998;SDS011;20549;50.042;8.968;2022-12-18T10:46:12;27.70;;;15.97;;
30998;SDS011;20549;50.042;8.968;2022-12-18T10:48:47;30.23;;;16.53;;
30998;SDS011;20549;50.042;8.968;2022-12-18T10:51:07;27.03;;;16.23;;
30998;SDS011;20549;50.042;8.968;2022-12-18T10:53:35;25.13;;;16.37;;
30998;SDS011;20549;50.042;8.968;2022-12-18T10:56:01;33.13;;;17.83;;
30998;SDS011;20549;50.042;8.968;2022-12-18T10:58:28;27.93;;;15.77;;
30998;SDS011;20549;50.042;8.968;2022-12-18T11:03:33;27.27;;;16.03;;
30998;SDS011;20549;50.042;8.968;2022-12-18T11:06:05;28.87;;;15.23;;
30998;SDS011;20549;50.042;8.968;2022-12-18T11:08:28;24.33;;;15.20;;
30998;SDS011;20549;50.042;8.968;2022-12-18T11:10:54;28.93;;;16.67;;
30998;SDS011;20549;50.042;8.968;2022-12-18T11:13:22;23.60;;;15.37;;
30998;SDS011;20549;50.042;8.968;2022-12-18T11:15:51;23.43;;;16.17;;
30998;SDS011;20549;50.042;8.968;2022-12-18T11:18:23;24.27;;;15.67;;
30998;SDS011;20549;50.042;8.968;2022-12-18T11:21:00;24.53;;;16.10;;
30998;SDS011;20549;50.042;8.968;2022-12-18T11:23:27;24.03;;;15.60;;
30998;SDS011;20549;50.042;8.968;2022-12-18T11:26:01;27.73;;;15.70;;
30998;SDS011;20549;50.042;8.968;2022-12-18T11:31:18;23.87;;;15.93;;
30998;SDS011;20549;50.042;8.968;2022-12-18T11:34:04;23.20;;;14.70;;
30998;SDS011;20549;50.042;8.968;2022-12-18T11:36:36;21.80;;;13.87;;
30998;SDS011;20549;50.042;8.968;2022-12-18T11:39:02;23.17;;;15.00;;
30998;SDS011;20549;50.042;8.968;2022-12-18T11:44:33;21.77;;;15.03;;
30998;SDS011;20549;50.042;8.968;2022-12-18T11:47:01;21.80;;;15.07;;
30998;SDS011;20549;50.042;8.968;2022-12-18T11:49:28;22.97;;;14.47;;
30998;SDS011;20549;50.042;8.968;2022-12-18T11:51:55;23.13;;;14.77;;
30998;SDS011;20549;50.042;8.968;2022-12-18T11:54:20;22.37;;;14.77;;
30998;SDS011;20549;50.042;8.968;2022-12-18T11:56:50;24.80;;;15.80;;
30998;SDS011;20549;50.042;8.968;2022-12-18T11:59:20;24.27;;;15.07;;
30998;SDS011;20549;50.042;8.968;2022-12-18T12:07:03;24.70;;;13.70;;
30998;SDS011;20549;50.042;8.968;2022-12-18T12:12:32;23.63;;;14.93;;
30998;SDS011;20549;50.042;8.968;2022-12-18T12:15:06;23.43;;;14.43;;
30998;SDS011;20549;50.042;8.968;2022-12-18T12:26:07;22.10;;;14.63;;
30998;SDS011;20549;50.042;8.968;2022-12-18T12:36:05;22.93;;;14.43;;
30998;SDS011;20549;50.042;8.968;2022-12-18T12:38:32;22.87;;;14.77;;
30998;SDS011;20549;50.042;8.968;2022-12-18T12:41:07;25.30;;;15.87;;
30998;SDS011;20549;50.042;8.968;2022-12-18T12:43:34;22.33;;;14.07;;
30998;SDS011;20549;50.042;8.968;2022-12-18T12:46:06;21.17;;;14.27;;
30998;SDS011;20549;50.042;8.968;2022-12-18T12:48:35;22.67;;;14.30;;
30998;SDS011;20549;50.042;8.968;2022-12-18T12:51:14;23.60;;;14.73;;
30998;SDS011;20549;50.042;8.968;2022-12-18T12:53:38;24.00;;;14.70;;
30998;SDS011;20549;50.042;8.968;2022-12-18T12:56:05;24.57;;;14.10;;
30998;SDS011;20549;50.042;8.968;2022-12-18T12:58:34;23.73;;;14.27;;
30998;SDS011;20549;50.042;8.968;2022-12-18T13:09:22;21.70;;;14.37;;
30998;SDS011;20549;50.042;8.968;2022-12-18T13:11:48;24.30;;;14.97;;
30998;SDS011;20549;50.042;8.968;2022-12-18T13:14:37;26.20;;;15.37;;
30998;SDS011;20549;50.042;8.968;2022-12-18T13:19:48;22.37;;;14.23;;
30998;SDS011;20549;50.042;8.968;2022-12-18T13:22:21;21.63;;;14.07;;
30998;SDS011;20549;50.042;8.968;2022-12-18T13:24:47;21.40;;;13.70;;
30998;SDS011;20549;50.042;8.968;2022-12-18T13:30:33;22.07;;;13.67;;
30998;SDS011;20549;50.042;8.968;2022-12-18T13:33:00;21.33;;;13.83;;
30998;SDS011;20549;50.042;8.968;2022-12-18T13:37:44;25.60;;;15.73;;
30998;SDS011;20549;50.042;8.968;2022-12-18T13:45:50;29.03;;;16.70;;
30998;SDS011;20549;50.042;8.968;2022-12-18T13:48:23;25.17;;;16.13;;
30998;SDS011;20549;50.042;8.968;2022-12-18T13:51:10;24.17;;;15.53;;
30998;SDS011;20549;50.042;8.968;2022-12-18T13:53:35;24.47;;;14.50;;
30998;SDS011;20549;50.042;8.968;2022-12-18T13:56:05;22.70;;;13.93;;
30998;SDS011;20549;50.042;8.968;2022-12-18T13:58:32;22.90;;;15.37;;
30998;SDS011;20549;50.042;8.968;2022-12-18T14:00:59;22.37;;;14.33;;
30998;SDS011;20549;50.042;8.968;2022-12-18T14:03:26;23.83;;;16.63;;
30998;SDS011;20549;50.042;8.968;2022-12-18T14:05:53;24.80;;;16.63;;
30998;SDS011;20549;50.042;8.968;2022-12-18T14:08:18;22.73;;;14.83;;
30998;SDS011;20549;50.042;8.968;2022-12-18T14:10:45;22.73;;;15.20;;
30998;SDS011;20549;50.042;8.968;2022-12-18T14:13:35;23.80;;;15.40;;
30998;SDS011;20549;50.042;8.968;2022-12-18T14:15:44;21.50;;;14.30;;
30998;SDS011;20549;50.042;8.968;2022-12-18T14:18:19;23.70;;;13.73;;
30998;SDS011;20549;50.042;8.968;2022-12-18T14:21:01;21.20;;;13.33;;
30998;SDS011;20549;50.042;8.968;2022-12-18T14:23:32;21.27;;;13.13;;
30998;SDS011;20549;50.042;8.968;2022-12-18T14:26:00;22.37;;;13.53;;
30998;SDS011;20549;50.042;8.968;2022-12-18T14:28:26;18.77;;;13.80;;
30998;SDS011;20549;50.042;8.968;2022-12-18T14:30:55;20.70;;;14.07;;
30998;SDS011;20549;50.042;8.968;2022-12-18T14:33:23;22.67;;;14.73;;
30998;SDS011;20549;50.042;8.968;2022-12-18T14:38:30;23.07;;;16.07;;
30998;SDS011;20549;50.042;8.968;2022-12-18T14:43:32;21.47;;;13.97;;
30998;SDS011;20549;50.042;8.968;2022-12-18T14:45:57;23.87;;;13.70;;
30998;SDS011;20549;50.042;8.968;2022-12-18T14:51:00;22.00;;;13.93;;
30998;SDS011;20549;50.042;8.968;2022-12-18T14:53:33;22.17;;;14.90;;
30998;SDS011;20549;50.042;8.968;2022-12-18T14:55:58;23.70;;;14.70;;
30998;SDS011;20549;50.042;8.968;2022-12-18T14:58:25;19.83;;;13.37;;
30998;SDS011;20549;50.042;8.968;2022-12-18T15:00:51;21.23;;;13.50;;
30998;SDS011;20549;50.042;8.968;2022-12-18T15:03:18;20.27;;;12.73;;
30998;SDS011;20549;50.042;8.968;2022-12-18T15:05:45;22.87;;;14.10;;
30998;SDS011;20549;50.042;8.968;2022-12-18T15:08:26;22.10;;;14.40;;
30998;SDS011;20549;50.042;8.968;2022-12-18T15:10:45;21.07;;;13.83;;
30998;SDS011;20549;50.042;8.968;2022-12-18T15:13:09;20.03;;;13.57;;
30998;SDS011;20549;50.042;8.968;2022-12-18T15:18:13;22.80;;;14.60;;
30998;SDS011;20549;50.042;8.968;2022-12-18T15:25:54;20.47;;;14.37;;
30998;SDS011;20549;50.042;8.968;2022-12-18T15:28:22;24.40;;;15.17;;
30998;SDS011;20549;50.042;8.968;2022-12-18T15:31:06;19.83;;;14.50;;
30998;SDS011;20549;50.042;8.968;2022-12-18T15:33:34;27.80;;;16.43;;
30998;SDS011;20549;50.042;8.968;2022-12-18T15:36:03;26.23;;;15.53;;
30998;SDS011;20549;50.042;8.968;2022-12-18T15:38:28;21.23;;;13.37;;
30998;SDS011;20549;50.042;8.968;2022-12-18T15:40:55;23.43;;;14.37;;
30998;SDS011;20549;50.042;8.968;2022-12-18T15:43:22;23.30;;;14.83;;
30998;SDS011;20549;50.042;8.968;2022-12-18T15:46:01;22.47;;;14.63;;
30998;SDS011;20549;50.042;8.968;2022-12-18T15:48:30;25.87;;;14.87;;
30998;SDS011;20549;50.042;8.968;2022-12-18T15:50:56;22.23;;;13.43;;
30998;SDS011;20549;50.042;8.968;2022-12-18T15:53:23;22.27;;;13.53;;
30998;SDS011;20549;50.042;8.968;2022-12-18T15:55:49;23.33;;;14.13;;
30998;SDS011;20549;50.042;8.968;2022-12-18T15:58:34;21.53;;;12.90;;
30998;SDS011;20549;50.042;8.968;2022-12-18T16:01:00;20.43;;;13.60;;